Time;durP1;ratioP1;P1;durP2;ratioP2;P2;SDS_P1;SDS_P2;PMS_P1;PMS_P2;Temp;Humidity;BMP_temperature;BMP_pressure;BME280_temperature;BME280_humidity;BME280_pressure;Samples;Min_cycle;Max_cycle;Signal;HPM_P1;HPM_P2
2023/06/12 00:00:56;;;;;;;5.22;4.72;;;;;;;;;;5022413;28;20651;-71
2023/06/12 00:03:25;;;;;;;5.10;4.60;;;;;;;;;;5022859;28;20132;-72
2023/06/12 00:05:51;;;;;;;5.43;4.60;;;;;;;;;;5022208;28;20053;-71
2023/06/12 00:08:17;;;;;;;5.13;4.63;;;;;;;;;;5022629;28;20053;-72
2023/06/12 00:10:44;;;;;;;5.15;4.65;;;;;;;;;;5037544;28;20498;-71
2023/06/12 00:13:11;;;;;;;5.53;4.20;;;;;;;;;;5022739;28;20128;-73
2023/06/12 00:15:36;;;;;;;5.20;4.53;;;;;;;;;;5022705;28;20057;-72
2023/06/12 00:18:03;;;;;;;6.60;4.60;;;;;;;;;;5022093;28;20038;-71
2023/06/12 00:20:29;;;;;;;6.97;4.75;;;;;;;;;;5021458;28;20037;-70
2023/06/12 00:22:56;;;;;;;5.80;4.55;;;;;;;;;;5021298;28;20049;-69
2023/06/12 00:25:21;;;;;;;5.45;4.68;;;;;;;;;;5020222;28;20052;-71
2023/06/12 00:27:47;;;;;;;5.40;4.90;;;;;;;;;;5023055;28;20045;-70
2023/06/12 00:30:14;;;;;;;7.05;5.65;;;;;;;;;;5005289;28;20710;-71
2023/06/12 00:32:40;;;;;;;5.80;5.20;;;;;;;;;;5022177;28;20045;-70
2023/06/12 00:35:06;;;;;;;6.40;5.22;;;;;;;;;;5021768;28;20287;-70
2023/06/12 00:37:32;;;;;;;5.95;5.35;;;;;;;;;;5014556;28;20045;-71
2023/06/12 00:39:58;;;;;;;5.60;5.00;;;;;;;;;;5020966;28;20064;-70
2023/06/12 00:42:30;;;;;;;5.50;5.00;;;;;;;;;;5021183;28;20600;-69
2023/06/12 00:44:55;;;;;;;8.70;5.22;;;;;;;;;;5012991;28;20464;-69
2023/06/12 00:47:21;;;;;;;5.40;4.82;;;;;;;;;;5018765;28;20090;-69
2023/06/12 00:49:47;;;;;;;5.57;5.07;;;;;;;;;;5022452;28;20045;-70
2023/06/12 00:52:15;;;;;;;7.05;5.15;;;;;;;;;;5022364;28;20371;-69
2023/06/12 00:54:43;;;;;;;6.25;4.90;;;;;;;;;;5019625;28;20038;-69
2023/06/12 00:57:08;;;;;;;5.20;4.53;;;;;;;;;;5022287;28;20055;-70
2023/06/12 00:59:35;;;;;;;7.03;4.85;;;;;;;;;;5021477;28;20045;-69
2023/06/12 01:02:03;;;;;;;6.30;5.70;;;;;;;;;;5022549;28;20041;-69
2023/06/12 01:04:29;;;;;;;5.95;5.35;;;;;;;;;;5035999;28;20497;-69
2023/06/12 01:07:07;;;;;;;6.13;5.25;;;;;;;;;;5019207;28;20049;-70
2023/06/12 01:09:38;;;;;;;9.80;4.88;;;;;;;;;;5024375;28;20056;-69
2023/06/12 01:12:05;;;;;;;6.63;5.75;;;;;;;;;;5012504;28;20042;-69
2023/06/12 01:14:31;;;;;;;6.75;5.30;;;;;;;;;;5027117;28;20115;-70
2023/06/12 01:17:01;;;;;;;7.38;5.53;;;;;;;;;;5037910;28;20049;-71
2023/06/12 01:19:28;;;;;;;5.72;5.22;;;;;;;;;;5036107;28;20045;-70
2023/06/12 01:21:58;;;;;;;5.72;5.18;;;;;;;;;;5030551;28;20506;-70
2023/06/12 01:24:42;;;;;;;5.57;4.88;;;;;;;;;;5022506;28;20136;-70
2023/06/12 01:27:24;;;;;;;6.75;5.10;;;;;;;;;;5020647;28;20447;-70
2023/06/12 01:29:50;;;;;;;6.40;5.40;;;;;;;;;;5018795;28;20057;-70
2023/06/12 01:32:16;;;;;;;9.18;5.63;;;;;;;;;;5021629;28;20049;-70
2023/06/12 01:35:05;;;;;;;6.38;5.72;;;;;;;;;;5026664;28;20071;-71
2023/06/12 01:37:44;;;;;;;7.38;5.72;;;;;;;;;;5030401;28;20045;-71
2023/06/12 01:40:16;;;;;;;7.03;5.18;;;;;;;;;;5028927;28;20071;-72
2023/06/12 01:42:42;;;;;;;6.53;5.50;;;;;;;;;;5025464;28;20473;-72
2023/06/12 01:45:07;;;;;;;6.53;5.72;;;;;;;;;;5020108;28;20151;-72
2023/06/12 01:47:33;;;;;;;6.75;5.82;;;;;;;;;;5018551;28;20049;-72
2023/06/12 01:49:59;;;;;;;7.28;5.35;;;;;;;;;;5020850;28;20045;-73
2023/06/12 01:52:26;;;;;;;7.07;6.40;;;;;;;;;;5019543;28;20037;-72
2023/06/12 01:54:51;;;;;;;7.28;6.05;;;;;;;;;;5019086;28;20117;-72
2023/06/12 01:57:21;;;;;;;6.50;5.75;;;;;;;;;;5034408;28;20080;-75
2023/06/12 01:59:48;;;;;;;7.80;6.55;;;;;;;;;;5035300;28;20107;-72
2023/06/12 02:02:15;;;;;;;7.15;6.45;;;;;;;;;;5019153;28;20042;-72
2023/06/12 02:04:41;;;;;;;7.00;6.22;;;;;;;;;;5035740;28;20152;-72
2023/06/12 02:07:07;;;;;;;7.38;6.57;;;;;;;;;;5002382;28;20115;-72
2023/06/12 02:09:33;;;;;;;7.88;6.93;;;;;;;;;;5019242;28;20053;-70
2023/06/12 02:12:00;;;;;;;7.60;6.63;;;;;;;;;;5020858;28;20091;-69
2023/06/12 02:14:26;;;;;;;6.90;6.15;;;;;;;;;;5018996;28;20132;-69
2023/06/12 02:16:55;;;;;;;6.80;6.10;;;;;;;;;;5035479;28;20896;-69
2023/06/12 02:19:25;;;;;;;8.60;5.72;;;;;;;;;;5033684;28;20037;-70
2023/06/12 02:21:54;;;;;;;9.25;6.30;;;;;;;;;;5018844;28;20132;-70
2023/06/12 02:24:19;;;;;;;7.82;6.65;;;;;;;;;;5018023;28;20087;-71
2023/06/12 02:26:45;;;;;;;11.75;6.65;;;;;;;;;;5035251;28;20205;-70
2023/06/12 02:29:13;;;;;;;7.25;6.55;;;;;;;;;;5001085;28;20128;-69
2023/06/12 02:31:43;;;;;;;9.43;6.70;;;;;;;;;;5018393;28;20142;-70
2023/06/12 02:34:10;;;;;;;6.95;6.03;;;;;;;;;;5035620;28;20029;-71
2023/06/12 02:36:40;;;;;;;7.15;6.45;;;;;;;;;;5018713;28;20049;-71
2023/06/12 02:39:07;;;;;;;7.60;5.85;;;;;;;;;;5018313;28;20081;-71
2023/06/12 02:41:33;;;;;;;11.82;6.30;;;;;;;;;;5017238;28;20064;-71
2023/06/12 02:43:58;;;;;;;6.80;5.85;;;;;;;;;;5020259;28;20124;-71
2023/06/12 02:46:24;;;;;;;7.03;6.32;;;;;;;;;;5019893;28;20038;-71
2023/06/12 02:48:50;;;;;;;8.45;7.18;;;;;;;;;;5002118;28;20076;-71
2023/06/12 02:51:15;;;;;;;7.45;6.30;;;;;;;;;;5000757;28;20052;-72
2023/06/12 02:53:41;;;;;;;7.50;6.65;;;;;;;;;;5035187;28;20037;-72
2023/06/12 02:56:06;;;;;;;9.18;6.80;;;;;;;;;;5018347;28;20080;-71
2023/06/12 02:58:33;;;;;;;8.00;6.95;;;;;;;;;;5034768;28;20154;-71
2023/06/12 03:00:58;;;;;;;8.05;6.55;;;;;;;;;;5001972;28;20041;-71
2023/06/12 03:03:28;;;;;;;9.65;6.95;;;;;;;;;;5016913;28;20045;-71
2023/06/12 03:05:54;;;;;;;7.93;7.03;;;;;;;;;;5018185;28;21074;-71
2023/06/12 03:08:20;;;;;;;11.30;6.72;;;;;;;;;;5034688;28;20168;-72
2023/06/12 03:10:45;;;;;;;7.65;6.85;;;;;;;;;;5035612;28;20048;-72
2023/06/12 03:13:14;;;;;;;10.32;7.68;;;;;;;;;;5037391;28;20071;-74
2023/06/12 03:15:40;;;;;;;8.98;7.43;;;;;;;;;;5021978;28;20045;-71
2023/06/12 03:18:05;;;;;;;12.32;8.25;;;;;;;;;;5022428;28;20045;-71
2023/06/12 03:20:34;;;;;;;8.93;7.78;;;;;;;;;;5005352;28;20049;-72
2023/06/12 03:23:01;;;;;;;10.55;7.28;;;;;;;;;;5022694;28;20486;-71
2023/06/12 03:25:27;;;;;;;9.05;7.05;;;;;;;;;;5020565;28;20056;-72
2023/06/12 03:27:52;;;;;;;9.20;7.93;;;;;;;;;;5038748;28;20038;-71
2023/06/12 03:30:18;;;;;;;12.85;7.97;;;;;;;;;;5038409;28;20527;-72
2023/06/12 03:32:45;;;;;;;9.82;8.00;;;;;;;;;;5038985;28;20045;-70
2023/06/12 03:35:12;;;;;;;9.85;8.00;;;;;;;;;;5021831;28;20404;-72
2023/06/12 03:37:40;;;;;;;9.38;8.00;;;;;;;;;;5018471;28;20056;-72
2023/06/12 03:40:08;;;;;;;9.77;8.48;;;;;;;;;;5038121;28;20110;-72
2023/06/12 03:42:37;;;;;;;11.98;7.93;;;;;;;;;;5005587;28;20478;-71
2023/06/12 03:45:04;;;;;;;9.73;8.20;;;;;;;;;;5021623;28;20127;-71
2023/06/12 03:47:30;;;;;;;14.05;8.68;;;;;;;;;;5022126;28;20123;-71
2023/06/12 03:49:55;;;;;;;12.73;8.30;;;;;;;;;;5020085;28;20046;-71
2023/06/12 03:52:21;;;;;;;11.50;8.02;;;;;;;;;;5021403;28;20037;-71
2023/06/12 03:54:49;;;;;;;9.63;8.50;;;;;;;;;;5030659;28;20041;-71
2023/06/12 03:57:15;;;;;;;9.35;8.02;;;;;;;;;;5020566;28;20387;-70
2023/06/12 03:59:41;;;;;;;9.32;8.13;;;;;;;;;;5004748;28;20049;-70
2023/06/12 04:02:06;;;;;;;9.18;8.27;;;;;;;;;;5005556;28;20056;-70
2023/06/12 04:04:32;;;;;;;11.40;8.93;;;;;;;;;;5037943;28;20049;-70
2023/06/12 04:06:59;;;;;;;15.10;8.77;;;;;;;;;;5021574;28;20131;-69
2023/06/12 04:09:25;;;;;;;13.70;8.98;;;;;;;;;;5019593;28;20052;-70
2023/06/12 04:11:51;;;;;;;10.52;8.65;;;;;;;;;;5037783;28;20053;-70
2023/06/12 04:14:16;;;;;;;15.75;9.52;;;;;;;;;;5021070;28;20042;-70
2023/06/12 04:16:41;;;;;;;11.32;9.50;;;;;;;;;;5022547;28;20091;-70
2023/06/12 04:19:08;;;;;;;13.23;10.10;;;;;;;;;;5037182;28;20514;-70
2023/06/12 04:21:36;;;;;;;14.30;10.00;;;;;;;;;;5020030;28;20045;-71
2023/06/12 04:24:03;;;;;;;13.27;9.48;;;;;;;;;;5021389;28;20046;-73
2023/06/12 04:26:34;;;;;;;12.35;9.80;;;;;;;;;;5020270;28;20065;-73
2023/06/12 04:29:02;;;;;;;12.43;10.50;;;;;;;;;;5004682;28;20045;-71
2023/06/12 04:31:28;;;;;;;11.75;9.27;;;;;;;;;;5017947;28;20057;-73
2023/06/12 04:33:54;;;;;;;12.40;9.38;;;;;;;;;;5020145;28;20049;-71
2023/06/12 04:36:23;;;;;;;13.45;10.10;;;;;;;;;;5036857;28;20037;-71
2023/06/12 04:38:52;;;;;;;11.30;9.50;;;;;;;;;;5020273;28;20053;-70
2023/06/12 04:41:19;;;;;;;14.25;10.00;;;;;;;;;;5008375;28;20048;-71
2023/06/12 04:43:48;;;;;;;14.45;9.85;;;;;;;;;;5020610;28;20049;-73
2023/06/12 04:46:21;;;;;;;12.70;8.93;;;;;;;;;;5019932;28;20073;-72
2023/06/12 04:48:47;;;;;;;12.77;10.07;;;;;;;;;;5021286;28;20041;-72
2023/06/12 04:51:13;;;;;;;12.57;9.23;;;;;;;;;;5019909;28;20048;-71
2023/06/12 04:53:43;;;;;;;12.95;9.18;;;;;;;;;;5020181;28;20501;-70
2023/06/12 04:56:12;;;;;;;11.05;9.57;;;;;;;;;;5018062;28;20049;-73
2023/06/12 04:58:40;;;;;;;12.00;9.25;;;;;;;;;;5033535;28;20089;-75
2023/06/12 05:01:06;;;;;;;12.27;9.43;;;;;;;;;;4991810;28;20065;-75
2023/06/12 05:03:33;;;;;;;12.25;8.65;;;;;;;;;;5034729;28;20479;-72
2023/06/12 05:05:59;;;;;;;12.20;7.75;;;;;;;;;;5027432;28;20043;-72
2023/06/12 05:08:25;;;;;;;8.55;7.07;;;;;;;;;;5006580;28;20048;-71
2023/06/12 05:10:51;;;;;;;10.73;7.80;;;;;;;;;;5019886;28;20041;-72
2023/06/12 05:13:18;;;;;;;11.32;7.40;;;;;;;;;;5020776;28;20108;-72
2023/06/12 05:15:43;;;;;;;9.88;7.35;;;;;;;;;;5018393;28;20049;-71
2023/06/12 05:18:09;;;;;;;12.02;7.28;;;;;;;;;;5019621;28;20557;-72
2023/06/12 05:20:34;;;;;;;8.50;7.57;;;;;;;;;;5003016;28;20041;-72
2023/06/12 05:23:02;;;;;;;10.30;7.28;;;;;;;;;;5002020;28;20043;-72
2023/06/12 05:25:28;;;;;;;12.77;6.88;;;;;;;;;;5018346;28;20608;-73
2023/06/12 05:27:53;;;;;;;10.77;6.70;;;;;;;;;;5019730;28;20048;-74
2023/06/12 05:30:19;;;;;;;9.98;6.32;;;;;;;;;;5035995;28;20057;-73
2023/06/12 05:32:46;;;;;;;8.35;6.95;;;;;;;;;;5035380;28;20110;-73
2023/06/12 05:35:12;;;;;;;8.02;6.55;;;;;;;;;;5018866;28;20437;-73
2023/06/12 05:37:38;;;;;;;12.30;6.72;;;;;;;;;;5023615;28;20049;-72
2023/06/12 05:40:05;;;;;;;12.07;7.20;;;;;;;;;;5024640;28;20044;-72
2023/06/12 05:42:31;;;;;;;7.03;6.32;;;;;;;;;;5017021;28;20045;-72
2023/06/12 05:44:57;;;;;;;8.10;6.28;;;;;;;;;;5019752;28;20053;-72
2023/06/12 05:47:23;;;;;;;8.00;6.05;;;;;;;;;;5002253;28;20045;-72
2023/06/12 05:49:49;;;;;;;8.70;6.10;;;;;;;;;;5020505;28;20600;-72
2023/06/12 05:52:15;;;;;;;9.13;5.97;;;;;;;;;;5019326;28;20049;-73
2023/06/12 05:54:42;;;;;;;9.48;6.10;;;;;;;;;;5013442;28;20125;-72
2023/06/12 05:57:07;;;;;;;9.25;5.93;;;;;;;;;;5035289;28;20144;-73
2023/06/12 05:59:33;;;;;;;6.97;6.10;;;;;;;;;;5033907;28;20486;-72
2023/06/12 06:01:59;;;;;;;6.43;5.35;;;;;;;;;;5018732;28;20045;-72
2023/06/12 06:04:27;;;;;;;5.85;5.30;;;;;;;;;;5019094;28;20038;-74
2023/06/12 06:06:53;;;;;;;6.55;5.47;;;;;;;;;;5035305;28;20422;-72
2023/06/12 06:09:18;;;;;;;5.82;5.32;;;;;;;;;;5034101;28;20072;-74
2023/06/12 06:11:44;;;;;;;7.63;5.78;;;;;;;;;;5018889;28;20049;-73
2023/06/12 06:14:11;;;;;;;11.90;6.07;;;;;;;;;;5023435;28;20029;-73
2023/06/12 06:16:38;;;;;;;6.95;5.75;;;;;;;;;;5036329;28;20045;-73
2023/06/12 06:19:03;;;;;;;6.40;5.40;;;;;;;;;;5020630;28;20410;-72
2023/06/12 06:21:30;;;;;;;7.93;5.70;;;;;;;;;;5017398;28;20353;-73
2023/06/12 06:23:56;;;;;;;7.60;5.50;;;;;;;;;;5010424;28;20111;-73
2023/06/12 06:26:22;;;;;;;9.30;6.15;;;;;;;;;;5018742;28;20041;-73
2023/06/12 06:28:47;;;;;;;9.45;7.70;;;;;;;;;;5018528;28;20107;-73
2023/06/12 06:31:14;;;;;;;7.68;5.82;;;;;;;;;;5034091;28;20037;-73
2023/06/12 06:33:40;;;;;;;7.80;5.93;;;;;;;;;;5018045;28;20045;-73
2023/06/12 06:36:06;;;;;;;6.93;6.03;;;;;;;;;;5019207;28;20056;-73
2023/06/12 06:38:31;;;;;;;6.15;5.55;;;;;;;;;;5035118;28;20037;-73
2023/06/12 06:40:57;;;;;;;13.80;5.97;;;;;;;;;;5008849;28;20052;-72
2023/06/12 06:43:24;;;;;;;6.82;5.70;;;;;;;;;;5033856;28;20525;-73
2023/06/12 06:45:55;;;;;;;7.22;5.78;;;;;;;;;;5021235;28;20132;-73
2023/06/12 06:48:21;;;;;;;8.63;5.47;;;;;;;;;;5034330;28;20042;-72
2023/06/12 06:50:47;;;;;;;8.90;5.90;;;;;;;;;;5028129;28;20506;-72
2023/06/12 06:53:13;;;;;;;12.10;5.57;;;;;;;;;;5017499;28;20037;-72
2023/06/12 06:55:42;;;;;;;8.48;5.53;;;;;;;;;;5020221;28;20063;-72
2023/06/12 06:58:08;;;;;;;5.68;5.18;;;;;;;;;;5018598;28;20041;-73
2023/06/12 07:00:34;;;;;;;6.85;5.43;;;;;;;;;;5017977;28;20111;-73
2023/06/12 07:03:00;;;;;;;8.60;5.28;;;;;;;;;;5018799;28;20203;-72
2023/06/12 07:05:27;;;;;;;10.15;5.40;;;;;;;;;;5000545;28;20513;-72
2023/06/12 07:07:53;;;;;;;5.82;5.22;;;;;;;;;;5018022;28;20033;-73
2023/06/12 07:10:19;;;;;;;6.80;5.50;;;;;;;;;;5019391;28;20421;-73
2023/06/12 07:12:48;;;;;;;10.20;5.45;;;;;;;;;;5018981;28;20057;-73
2023/06/12 07:15:13;;;;;;;9.02;5.22;;;;;;;;;;5025632;28;20068;-72
2023/06/12 07:17:43;;;;;;;5.75;5.10;;;;;;;;;;5002137;28;20996;-72
2023/06/12 07:20:10;;;;;;;7.55;5.10;;;;;;;;;;5018445;28;20041;-72
2023/06/12 07:22:35;;;;;;;5.95;5.30;;;;;;;;;;5034992;28;20033;-72
2023/06/12 07:25:01;;;;;;;8.10;5.80;;;;;;;;;;5019841;28;20052;-74
2023/06/12 07:27:26;;;;;;;10.73;5.00;;;;;;;;;;5017740;28;20041;-73
2023/06/12 07:29:55;;;;;;;6.60;5.40;;;;;;;;;;5001570;28;20088;-72
2023/06/12 07:32:20;;;;;;;8.65;5.10;;;;;;;;;;5022506;28;20386;-72
2023/06/12 07:34:46;;;;;;;5.60;5.07;;;;;;;;;;5019882;28;20038;-76
2023/06/12 07:37:12;;;;;;;6.40;5.28;;;;;;;;;;5034361;28;20041;-73
2023/06/12 07:39:38;;;;;;;5.25;4.63;;;;;;;;;;5025377;28;20053;-73
2023/06/12 07:42:06;;;;;;;7.32;4.93;;;;;;;;;;5034343;28;20049;-73
2023/06/12 07:44:32;;;;;;;8.00;5.10;;;;;;;;;;5017901;28;20069;-72
2023/06/12 07:46:57;;;;;;;6.82;4.60;;;;;;;;;;5034635;28;20084;-73
2023/06/12 07:49:23;;;;;;;5.38;4.88;;;;;;;;;;5016840;28;20044;-72
2023/06/12 07:51:48;;;;;;;7.70;5.22;;;;;;;;;;5019440;28;20149;-73
2023/06/12 07:54:15;;;;;;;5.68;4.53;;;;;;;;;;5034533;28;20048;-72
2023/06/12 07:56:40;;;;;;;11.27;4.68;;;;;;;;;;5019706;28;20045;-74
2023/06/12 07:59:10;;;;;;;7.07;5.00;;;;;;;;;;5036726;28;20124;-73
2023/06/12 08:01:37;;;;;;;;;;;;;;;;;;5020876;28;20049;-75
2023/06/12 08:04:09;;;;;;;5.38;4.28;;;;;;;;;;5020927;28;20350;-72
2023/06/12 08:06:35;;;;;;;13.60;4.80;;;;;;;;;;5021517;28;20087;-72
2023/06/12 08:09:01;;;;;;;8.90;4.55;;;;;;;;;;5037506;28;20041;-72
2023/06/12 08:11:27;;;;;;;5.22;4.72;;;;;;;;;;5019863;28;20053;-73
2023/06/12 08:13:54;;;;;;;6.07;4.45;;;;;;;;;;5004608;28;20203;-72
2023/06/12 08:16:25;;;;;;;8.23;4.32;;;;;;;;;;5037813;28;20037;-73
2023/06/12 08:18:53;;;;;;;5.78;4.57;;;;;;;;;;5021012;28;20521;-74
2023/06/12 08:21:21;;;;;;;7.55;4.80;;;;;;;;;;5036550;28;20038;-74
2023/06/12 08:23:47;;;;;;;7.63;4.38;;;;;;;;;;5022359;28;20072;-74
2023/06/12 08:26:12;;;;;;;13.60;4.38;;;;;;;;;;5022118;28;20124;-73
2023/06/12 08:28:38;;;;;;;7.53;4.43;;;;;;;;;;5037466;28;20394;-74
2023/06/12 08:31:06;;;;;;;6.00;4.82;;;;;;;;;;5037602;28;20398;-72
2023/06/12 08:33:32;;;;;;;5.78;4.60;;;;;;;;;;5035989;28;20038;-74
2023/06/12 08:36:00;;;;;;;6.00;4.30;;;;;;;;;;5037531;28;20557;-72
2023/06/12 08:38:26;;;;;;;4.75;4.15;;;;;;;;;;5020119;28;20037;-72
2023/06/12 08:40:54;;;;;;;6.10;4.22;;;;;;;;;;5036667;28;20058;-73
2023/06/12 08:43:19;;;;;;;9.48;4.32;;;;;;;;;;5019258;28;20052;-73
2023/06/12 08:45:51;;;;;;;4.82;4.25;;;;;;;;;;5021598;28;20042;-72
2023/06/12 08:48:18;;;;;;;6.65;4.25;;;;;;;;;;5021710;28;20119;-72
2023/06/12 08:50:45;;;;;;;6.75;3.72;;;;;;;;;;5020418;28;20897;-72
2023/06/12 08:53:11;;;;;;;9.57;4.00;;;;;;;;;;5021497;28;20087;-70
2023/06/12 08:55:39;;;;;;;8.57;4.07;;;;;;;;;;5019892;28;20787;-71
2023/06/12 08:58:06;;;;;;;5.60;4.22;;;;;;;;;;5020979;28;20041;-72
2023/06/12 09:00:31;;;;;;;5.80;4.32;;;;;;;;;;5020560;28;20057;-72
2023/06/12 09:02:57;;;;;;;5.32;4.00;;;;;;;;;;5021739;28;20112;-72
2023/06/12 09:05:29;;;;;;;9.00;3.92;;;;;;;;;;5020738;28;20057;-72
2023/06/12 09:07:57;;;;;;;4.95;4.40;;;;;;;;;;5019028;28;20050;-72
2023/06/12 09:10:23;;;;;;;7.07;3.80;;;;;;;;;;5021191;28;20111;-71
2023/06/12 09:12:53;;;;;;;5.68;3.95;;;;;;;;;;5021001;28;20067;-72
2023/06/12 09:15:19;;;;;;;8.07;4.10;;;;;;;;;;5019884;28;20041;-71
2023/06/12 09:17:49;;;;;;;4.55;3.60;;;;;;;;;;5020666;28;20055;-71
2023/06/12 09:20:26;;;;;;;3.75;3.45;;;;;;;;;;5020073;28;20056;-71
2023/06/12 09:22:52;;;;;;;7.65;3.70;;;;;;;;;;5021632;28;20045;-74
2023/06/12 09:25:21;;;;;;;5.70;3.83;;;;;;;;;;5020800;28;20053;-73
2023/06/12 09:27:47;;;;;;;4.38;3.72;;;;;;;;;;5020485;28;20037;-72
2023/06/12 09:30:13;;;;;;;4.15;3.53;;;;;;;;;;5021306;28;20059;-72
2023/06/12 09:32:43;;;;;;;3.58;3.28;;;;;;;;;;5021311;28;20045;-75
2023/06/12 09:35:10;;;;;;;4.78;3.40;;;;;;;;;;5021325;28;20091;-72
2023/06/12 09:37:37;;;;;;;5.30;3.55;;;;;;;;;;5020240;28;20060;-72
2023/06/12 09:40:12;;;;;;;5.43;3.63;;;;;;;;;;5021050;28;20045;-73
2023/06/12 09:42:39;;;;;;;7.63;3.95;;;;;;;;;;5019589;28;20053;-75
2023/06/12 09:45:11;;;;;;;6.63;3.50;;;;;;;;;;5021105;28;20042;-74
2023/06/12 09:47:50;;;;;;;5.18;3.03;;;;;;;;;;5020106;28;20045;-74
2023/06/12 09:50:17;;;;;;;7.85;3.60;;;;;;;;;;5019878;28;20045;-74
2023/06/12 09:52:45;;;;;;;3.55;2.97;;;;;;;;;;5019937;28;20402;-72
2023/06/12 09:55:17;;;;;;;3.20;2.90;;;;;;;;;;5020943;28;20069;-73
2023/06/12 09:57:51;;;;;;;5.72;3.30;;;;;;;;;;5019034;28;20064;-74
2023/06/12 10:00:19;;;;;;;5.65;3.30;;;;;;;;;;5018103;28;20053;-75
2023/06/12 10:03:00;;;;;;;6.50;3.42;;;;;;;;;;5019530;28;20053;-75
2023/06/12 10:05:37;;;;;;;7.78;3.30;;;;;;;;;;5020231;28;20119;-76
2023/06/12 10:08:03;;;;;;;3.40;3.10;;;;;;;;;;5020649;28;20402;-74
2023/06/12 10:10:30;;;;;;;4.93;3.03;;;;;;;;;;5019152;28;20050;-74
2023/06/12 10:12:56;;;;;;;4.28;3.40;;;;;;;;;;5020925;28;20537;-74
2023/06/12 10:15:22;;;;;;;4.68;3.30;;;;;;;;;;5003529;28;20038;-74
2023/06/12 10:17:53;;;;;;;6.55;3.30;;;;;;;;;;5021556;28;20053;-74
2023/06/12 10:20:20;;;;;;;7.72;3.40;;;;;;;;;;5019878;28;20518;-74
2023/06/12 10:22:46;;;;;;;6.30;3.40;;;;;;;;;;5019594;28;20054;-77
2023/06/12 10:25:14;;;;;;;6.22;3.60;;;;;;;;;;5021845;28;20049;-74
2023/06/12 10:27:41;;;;;;;4.95;3.40;;;;;;;;;;5020287;28;20122;-75
2023/06/12 10:30:11;;;;;;;4.55;3.30;;;;;;;;;;5021174;28;20049;-75
2023/06/12 10:32:37;;;;;;;6.53;3.83;;;;;;;;;;5020398;28;20089;-75
2023/06/12 10:35:03;;;;;;;4.70;2.85;;;;;;;;;;5002689;28;20506;-74
2023/06/12 10:37:34;;;;;;;3.58;2.83;;;;;;;;;;5019746;28;20076;-74
2023/06/12 10:40:05;;;;;;;4.33;3.40;;;;;;;;;;5020133;28;20053;-72
2023/06/12 10:42:51;;;;;;;8.68;3.15;;;;;;;;;;5020289;28;20477;-72
2023/06/12 10:45:33;;;;;;;6.03;2.83;;;;;;;;;;5017775;28;20045;-74
2023/06/12 10:48:04;;;;;;;;;;;;;;;;;;5021444;28;20056;-74
2023/06/12 10:50:53;;;;;;;5.55;2.95;;;;;;;;;;5022122;28;20111;-74
2023/06/12 10:53:21;;;;;;;7.55;2.83;;;;;;;;;;5021002;28;20042;-74
2023/06/12 10:55:47;;;;;;;3.40;2.80;;;;;;;;;;5019258;28;20071;-74
2023/06/12 10:58:15;;;;;;;3.70;2.67;;;;;;;;;;5020476;28;20055;-73
2023/06/12 11:00:46;;;;;;;3.60;2.78;;;;;;;;;;5022465;28;20061;-74
2023/06/12 11:03:19;;;;;;;4.10;3.08;;;;;;;;;;5013019;28;20669;-73
2023/06/12 11:05:55;;;;;;;6.45;3.05;;;;;;;;;;5025914;28;20137;-73
2023/06/12 11:08:21;;;;;;;4.35;2.90;;;;;;;;;;5027476;28;20056;-74
2023/06/12 11:10:46;;;;;;;2.97;2.75;;;;;;;;;;5027522;28;20045;-74
2023/06/12 11:13:12;;;;;;;5.95;2.97;;;;;;;;;;5020999;28;20042;-74
2023/06/12 11:15:44;;;;;;;3.38;2.60;;;;;;;;;;5018220;28;20053;-75
2023/06/12 11:18:11;;;;;;;3.10;2.80;;;;;;;;;;5018886;28;20041;-74
2023/06/12 11:20:37;;;;;;;7.30;2.97;;;;;;;;;;5018710;28;20467;-75
2023/06/12 11:23:03;;;;;;;3.97;2.90;;;;;;;;;;5018731;28;20693;-74
2023/06/12 11:25:43;;;;;;;5.20;3.03;;;;;;;;;;5018363;28;20116;-74
2023/06/12 11:28:09;;;;;;;5.80;2.53;;;;;;;;;;5018069;28;20506;-73
2023/06/12 11:30:34;;;;;;;2.58;2.35;;;;;;;;;;5018384;28;20072;-74
2023/06/12 11:33:13;;;;;;;3.13;2.83;;;;;;;;;;5019087;28;20049;-72
2023/06/12 11:35:47;;;;;;;7.90;2.97;;;;;;;;;;5022837;28;20395;-73
2023/06/12 11:38:16;;;;;;;5.32;2.55;;;;;;;;;;5022187;28;20135;-74
2023/06/12 11:40:43;;;;;;;5.47;2.60;;;;;;;;;;5021192;28;20060;-72
2023/06/12 11:43:09;;;;;;;3.30;2.58;;;;;;;;;;5023736;28;20049;-73
2023/06/12 11:45:41;;;;;;;4.40;2.70;;;;;;;;;;5019114;28;20048;-75
2023/06/12 11:48:13;;;;;;;8.13;3.17;;;;;;;;;;5021547;28;20045;-74
2023/06/12 11:50:39;;;;;;;5.75;2.63;;;;;;;;;;5020470;28;20053;-74
2023/06/12 11:53:05;;;;;;;3.70;2.67;;;;;;;;;;5023986;28;20052;-78
2023/06/12 11:55:32;;;;;;;3.13;2.67;;;;;;;;;;5022261;28;20037;-75
2023/06/12 11:58:01;;;;;;;8.48;3.30;;;;;;;;;;5022543;28;20958;-74
2023/06/12 12:00:30;;;;;;;3.33;2.92;;;;;;;;;;5021856;28;20048;-73
2023/06/12 12:02:58;;;;;;;2.75;2.55;;;;;;;;;;4991060;28;20525;-74
2023/06/12 12:05:24;;;;;;;5.13;2.70;;;;;;;;;;5021234;28;20504;-73
2023/06/12 12:07:56;;;;;;;4.30;2.50;;;;;;;;;;5020255;28;20124;-73
2023/06/12 12:10:22;;;;;;;4.38;2.65;;;;;;;;;;5020599;28;20160;-73
2023/06/12 12:12:51;;;;;;;6.25;2.88;;;;;;;;;;5021659;28;20684;-73
2023/06/12 12:15:22;;;;;;;3.75;2.80;;;;;;;;;;5020812;28;20046;-72
2023/06/12 12:17:49;;;;;;;4.38;2.72;;;;;;;;;;5022063;28;20581;-74
2023/06/12 12:20:23;;;;;;;6.20;2.53;;;;;;;;;;5013662;28;20048;-74
2023/06/12 12:22:51;;;;;;;3.10;2.38;;;;;;;;;;5004269;28;20053;-72
2023/06/12 12:25:18;;;;;;;3.75;2.53;;;;;;;;;;5026574;28;20044;-73
2023/06/12 12:27:45;;;;;;;3.33;2.40;;;;;;;;;;5023204;28;20091;-74
2023/06/12 12:30:14;;;;;;;7.00;2.45;;;;;;;;;;5021882;28;20065;-73
2023/06/12 12:32:41;;;;;;;3.95;2.60;;;;;;;;;;5021993;28;20049;-75
2023/06/12 12:35:07;;;;;;;4.15;2.38;;;;;;;;;;5036789;28;20414;-72
2023/06/12 12:37:33;;;;;;;3.83;2.60;;;;;;;;;;5021521;28;20095;-71
2023/06/12 12:39:58;;;;;;;4.28;2.50;;;;;;;;;;5021845;28;20474;-73
2023/06/12 12:42:24;;;;;;;2.35;2.15;;;;;;;;;;5021167;28;20052;-73
2023/06/12 12:44:50;;;;;;;9.30;2.55;;;;;;;;;;5021029;28;20045;-73
2023/06/12 12:47:16;;;;;;;4.45;2.65;;;;;;;;;;5020036;28;20317;-72
2023/06/12 12:49:41;;;;;;;4.70;2.80;;;;;;;;;;5021255;28;20056;-73
2023/06/12 12:52:07;;;;;;;5.57;2.40;;;;;;;;;;5021709;28;20073;-72
2023/06/12 12:54:32;;;;;;;4.50;3.00;;;;;;;;;;5022034;28;20045;-74
2023/06/12 12:56:58;;;;;;;7.00;2.67;;;;;;;;;;5035820;28;20049;-69
2023/06/12 12:59:24;;;;;;;2.55;2.30;;;;;;;;;;5020968;28;20132;-73
2023/06/12 13:01:50;;;;;;;4.68;2.50;;;;;;;;;;5021410;28;20383;-74
2023/06/12 13:04:16;;;;;;;7.32;2.67;;;;;;;;;;5020610;28;20126;-76
2023/06/12 13:06:41;;;;;;;3.15;2.40;;;;;;;;;;5034897;28;20135;-73
2023/06/12 13:09:07;;;;;;;5.78;2.60;;;;;;;;;;5021272;28;20490;-77
2023/06/12 13:11:33;;;;;;;6.25;2.33;;;;;;;;;;5019712;28;20410;-73
2023/06/12 13:13:58;;;;;;;3.28;1.92;;;;;;;;;;5020042;28;20498;-74
2023/06/12 13:16:24;;;;;;;5.90;2.25;;;;;;;;;;5019803;28;20522;-75
2023/06/12 13:18:49;;;;;;;2.45;2.00;;;;;;;;;;5019198;28;20048;-75
2023/06/12 13:21:14;;;;;;;3.38;2.20;;;;;;;;;;5019637;28;20898;-74
2023/06/12 13:23:40;;;;;;;4.50;2.00;;;;;;;;;;5019088;28;20049;-73
2023/06/12 13:26:06;;;;;;;4.95;2.25;;;;;;;;;;5019701;28;20041;-74
2023/06/12 13:28:33;;;;;;;2.65;2.30;;;;;;;;;;5018320;28;20050;-73
2023/06/12 13:30:58;;;;;;;4.93;1.80;;;;;;;;;;5021121;28;21028;-74
2023/06/12 13:33:24;;;;;;;2.88;2.10;;;;;;;;;;5021291;28;20049;-75
2023/06/12 13:35:49;;;;;;;4.38;2.13;;;;;;;;;;5021622;28;20041;-74
2023/06/12 13:38:15;;;;;;;2.70;2.00;;;;;;;;;;5020798;28;20083;-74
2023/06/12 13:40:41;;;;;;;3.90;2.30;;;;;;;;;;5020762;28;20128;-74
2023/06/12 13:43:06;;;;;;;3.15;2.30;;;;;;;;;;5021171;28;20117;-74
2023/06/12 13:45:33;;;;;;;3.05;2.10;;;;;;;;;;5035606;28;20447;-74
2023/06/12 13:47:59;;;;;;;5.57;2.22;;;;;;;;;;5019696;28;20049;-75
2023/06/12 13:50:24;;;;;;;2.03;1.92;;;;;;;;;;5035261;28;20053;-73
2023/06/12 13:52:50;;;;;;;5.32;1.95;;;;;;;;;;5002315;28;20037;-75
2023/06/12 13:55:16;;;;;;;4.65;2.15;;;;;;;;;;5020069;28;20546;-73
2023/06/12 13:57:42;;;;;;;1.67;1.58;;;;;;;;;;5019877;28;20057;-73
2023/06/12 14:00:09;;;;;;;5.55;1.92;;;;;;;;;;5020969;28;20104;-73
2023/06/12 14:02:34;;;;;;;2.40;2.20;;;;;;;;;;5002155;28;20128;-72
2023/06/12 14:05:00;;;;;;;4.40;2.13;;;;;;;;;;5036231;28;20063;-73
2023/06/12 14:07:25;;;;;;;2.75;2.40;;;;;;;;;;5019988;28;20071;-74
2023/06/12 14:09:51;;;;;;;4.90;1.80;;;;;;;;;;5020492;28;20168;-76
2023/06/12 14:12:16;;;;;;;3.25;2.28;;;;;;;;;;5021622;28;20463;-75
2023/06/12 14:14:46;;;;;;;2.30;2.10;;;;;;;;;;5020020;28;20041;-77
2023/06/12 14:17:12;;;;;;;2.63;2.22;;;;;;;;;;5018781;28;20129;-76
2023/06/12 14:19:38;;;;;;;3.45;2.00;;;;;;;;;;5026520;28;20473;-79
2023/06/12 14:22:04;;;;;;;3.78;1.98;;;;;;;;;;5023105;28;20045;-77
2023/06/12 14:24:29;;;;;;;3.13;1.98;;;;;;;;;;5019847;28;20045;-75
2023/06/12 14:26:56;;;;;;;4.22;2.00;;;;;;;;;;5019739;28;20047;-76
2023/06/12 14:29:21;;;;;;;3.58;1.95;;;;;;;;;;5002958;28;20485;-74
2023/06/12 14:31:47;;;;;;;1.90;1.80;;;;;;;;;;5020126;28;20041;-76
2023/06/12 14:34:12;;;;;;;3.17;2.15;;;;;;;;;;5019449;28;20045;-74
2023/06/12 14:36:38;;;;;;;3.25;2.42;;;;;;;;;;5019326;28;20401;-75
2023/06/12 14:39:03;;;;;;;3.05;2.13;;;;;;;;;;5017472;28;20703;-74
2023/06/12 14:41:28;;;;;;;2.95;2.40;;;;;;;;;;5018140;28;20052;-73